createdAt,value
2018-12-11T00:01:33.292Z,58.53
2018-12-11T00:04:04.825Z,57.27
2018-12-11T00:06:34.368Z,56.63
2018-12-11T00:09:05.394Z,57.23
2018-12-11T00:11:35.053Z,58.30
2018-12-11T00:14:04.524Z,56.13
2018-12-11T00:16:34.078Z,56.90
2018-12-11T00:19:03.590Z,55.73
2018-12-11T00:21:32.986Z,57.63
2018-12-11T00:24:02.419Z,56.37
2018-12-11T00:26:32.016Z,54.50
2018-12-11T00:29:01.448Z,55.93
2018-12-11T00:31:30.850Z,56.70
2018-12-11T00:34:00.281Z,54.63
2018-12-11T00:36:29.692Z,55.73
2018-12-11T00:38:59.148Z,56.87
2018-12-11T00:41:28.564Z,55.93
2018-12-11T00:43:58.003Z,53.57
2018-12-11T00:46:27.453Z,53.60
2018-12-11T00:48:56.872Z,55.23
2018-12-11T00:51:26.268Z,52.97
2018-12-11T00:53:55.746Z,52.70
2018-12-11T00:56:25.340Z,52.73
2018-12-11T00:58:54.751Z,51.27
2018-12-11T01:01:25.003Z,51.60
2018-12-11T01:03:55.556Z,51.57
2018-12-11T01:06:26.804Z,50.63
2018-12-11T01:08:56.240Z,49.73
2018-12-11T01:11:26.670Z,49.10
2018-12-11T01:13:56.163Z,48.90
2018-12-11T01:16:26.048Z,47.57
2018-12-11T01:18:55.644Z,49.97
2018-12-11T01:21:25.148Z,48.93
2018-12-11T01:23:54.546Z,48.20
2018-12-11T01:26:23.988Z,47.03
2018-12-11T01:28:53.509Z,47.67
2018-12-11T01:31:22.936Z,44.70
2018-12-11T01:33:52.344Z,45.23
2018-12-11T01:36:21.817Z,46.30
2018-12-11T01:38:51.220Z,46.07
2018-12-11T01:41:20.676Z,45.43
2018-12-11T01:43:50.069Z,44.07
2018-12-11T01:46:19.508Z,45.63
2018-12-11T01:48:49.975Z,43.87
2018-12-11T01:51:19.396Z,43.67
2018-12-11T01:53:48.800Z,43.10
2018-12-11T01:56:18.244Z,41.13
2018-12-11T01:58:47.687Z,41.90
2018-12-11T02:01:17.093Z,43.03
2018-12-11T02:03:46.512Z,41.67
2018-12-11T02:06:15.945Z,41.23
2018-12-11T02:08:45.360Z,42.53
2018-12-11T02:11:14.792Z,40.67
2018-12-11T02:13:44.208Z,40.20
2018-12-11T02:16:13.629Z,39.50
2018-12-11T02:18:43.038Z,38.20
2018-12-11T02:21:12.457Z,37.60
2018-12-11T02:23:41.869Z,39.70
2018-12-11T02:26:11.270Z,38.53
2018-12-11T02:28:41.737Z,39.40
2018-12-11T02:31:11.158Z,37.33
2018-12-11T02:33:40.589Z,37.13
2018-12-11T02:36:09.996Z,37.17
2018-12-11T02:38:39.440Z,37.23
2018-12-11T02:41:08.888Z,36.33
2018-12-11T02:43:38.377Z,37.03
2018-12-11T02:46:07.796Z,35.63
2018-12-11T02:48:37.243Z,34.97
2018-12-11T02:51:06.665Z,35.90
2018-12-11T02:53:37.228Z,35.13
2018-12-11T02:56:06.646Z,35.23
2018-12-11T02:58:36.106Z,34.30
2018-12-11T03:01:05.530Z,33.63
2018-12-11T03:03:34.957Z,33.80
2018-12-11T03:06:05.447Z,32.50
2018-12-11T03:08:34.873Z,33.10
2018-12-11T03:11:04.280Z,32.43
2018-12-11T03:13:33.729Z,33.60
2018-12-11T03:16:03.150Z,31.70
2018-12-11T03:18:32.569Z,30.33
2018-12-11T03:21:01.982Z,31.67
2018-12-11T03:23:31.396Z,30.43
2018-12-11T03:26:00.810Z,30.20
2018-12-11T03:28:30.205Z,29.97
2018-12-11T03:31:00.755Z,30.07
2018-12-11T03:33:30.152Z,29.80
2018-12-11T03:35:59.556Z,29.23
2018-12-11T03:38:28.979Z,29.53
2018-12-11T03:40:58.462Z,28.07
2018-12-11T03:43:27.878Z,27.67
2018-12-11T03:45:57.277Z,28.87
2018-12-11T03:48:26.688Z,29.43
2018-12-11T03:50:56.103Z,27.40
2018-12-11T03:53:25.674Z,27.73
2018-12-11T03:55:55.171Z,26.60
2018-12-11T03:58:24.573Z,27.43
2018-12-11T04:00:53.976Z,26.03
2018-12-11T04:03:23.414Z,27.40
2018-12-11T04:05:52.833Z,26.80
2018-12-11T04:08:22.250Z,25.93
2018-12-11T04:10:51.658Z,27.10
2018-12-11T04:13:21.062Z,27.27
2018-12-11T04:15:50.522Z,25.93
2018-12-11T04:18:20.326Z,25.83
2018-12-11T04:20:49.825Z,25.50
2018-12-11T04:23:19.236Z,25.23
2018-12-11T04:25:49.796Z,23.90
2018-12-11T04:28:19.196Z,24.83
2018-12-11T04:30:48.627Z,24.20
2018-12-11T04:33:18.033Z,23.50
2018-12-11T04:35:47.435Z,23.17
2018-12-11T04:38:16.860Z,24.10
2018-12-11T04:40:46.256Z,23.40
2018-12-11T04:43:15.699Z,22.77
2018-12-11T04:45:45.101Z,22.53
2018-12-11T04:48:14.576Z,22.07
2018-12-11T04:50:44.001Z,22.30
2018-12-11T04:53:13.452Z,22.70
2018-12-11T04:55:42.892Z,22.50
2018-12-11T04:58:12.354Z,23.33
2018-12-11T05:00:41.736Z,25.43
2018-12-11T05:03:11.196Z,27.53
2018-12-11T05:05:40.639Z,27.37
2018-12-11T05:08:16.584Z,26.27
2018-12-11T05:10:46.085Z,26.60
2018-12-11T05:13:15.539Z,27.20
2018-12-11T05:15:44.957Z,26.03
2018-12-11T05:18:14.437Z,27.57
2018-12-11T05:20:43.860Z,27.50
2018-12-11T05:23:13.288Z,27.27
2018-12-11T05:25:43.564Z,26.40
2018-12-11T05:28:13.032Z,27.97
2018-12-11T05:30:42.433Z,26.40
2018-12-11T05:33:11.886Z,27.43
2018-12-11T05:35:41.301Z,27.60
2018-12-11T05:38:10.723Z,27.80
2018-12-11T05:40:40.128Z,26.97
2018-12-11T05:43:09.546Z,28.27
2018-12-11T05:45:38.940Z,27.07
2018-12-11T05:48:08.344Z,27.90
2018-12-11T05:50:37.776Z,27.57
2018-12-11T05:53:07.204Z,27.23
2018-12-11T05:55:36.617Z,27.77
2018-12-11T05:58:06.011Z,27.13
2018-12-11T06:00:35.484Z,27.20
2018-12-11T06:03:04.883Z,28.00
2018-12-11T06:05:34.369Z,27.13
2018-12-11T06:08:03.865Z,27.63
2018-12-11T06:10:33.335Z,27.47
2018-12-11T06:13:02.739Z,26.03
2018-12-11T06:15:32.173Z,27.23
2018-12-11T06:18:01.573Z,26.27
2018-12-11T06:20:30.985Z,26.50
2018-12-11T06:23:00.396Z,28.03
2018-12-11T06:25:29.826Z,25.57
2018-12-11T06:27:59.241Z,25.50
2018-12-11T06:30:28.652Z,24.33
2018-12-11T06:32:58.064Z,26.53
2018-12-11T06:35:27.471Z,25.00
2018-12-11T06:37:56.879Z,25.23
2018-12-11T06:40:26.309Z,25.93
2018-12-11T06:42:55.709Z,24.80
2018-12-11T06:45:25.113Z,24.07
2018-12-11T06:47:54.552Z,28.63
2018-12-11T06:50:26.017Z,28.57
2018-12-11T06:52:55.505Z,27.87
2018-12-11T06:55:24.912Z,29.13
2018-12-11T06:57:54.355Z,27.93
2018-12-11T07:00:23.788Z,33.53
2018-12-11T07:02:53.212Z,30.03
2018-12-11T07:05:22.660Z,36.30
2018-12-11T07:07:52.101Z,43.43
2018-12-11T07:10:21.505Z,47.97
2018-12-11T07:12:50.927Z,37.20
2018-12-11T07:15:20.377Z,45.03
2018-12-11T07:17:49.893Z,46.13
2018-12-11T07:20:19.296Z,46.60
2018-12-11T07:22:48.722Z,44.10
2018-12-11T07:25:18.144Z,47.53
2018-12-11T07:27:47.567Z,53.40
2018-12-11T07:30:16.968Z,43.13
2018-12-11T07:32:46.429Z,45.00
2018-12-11T07:35:15.841Z,42.80
2018-12-11T07:37:45.344Z,54.90
2018-12-11T07:40:14.752Z,79.90
2018-12-11T07:42:44.338Z,84.47
2018-12-11T07:45:13.764Z,87.43
2018-12-11T07:47:43.196Z,83.87
2018-12-11T07:50:12.609Z,81.43
2018-12-11T07:52:42.027Z,80.27
2018-12-11T07:55:11.462Z,79.40
2018-12-11T07:57:40.865Z,102.73
2018-12-11T08:00:10.284Z,64.07
2018-12-11T08:02:40.736Z,67.37
2018-12-11T08:05:10.184Z,66.77
2018-12-11T08:07:39.593Z,43.77
2018-12-11T08:10:09.017Z,51.00
2018-12-11T08:12:38.409Z,53.23
2018-12-11T08:15:07.846Z,56.13
2018-12-11T08:17:37.228Z,56.90
2018-12-11T08:20:06.801Z,55.23
2018-12-11T08:22:36.203Z,55.53
2018-12-11T08:25:05.719Z,53.17
2018-12-11T08:27:35.118Z,52.63
2018-12-11T08:30:04.692Z,51.97
2018-12-11T08:32:34.113Z,51.07
2018-12-11T08:35:03.540Z,51.13
2018-12-11T08:37:32.953Z,49.97
2018-12-11T08:40:02.426Z,49.03
2018-12-11T08:42:31.866Z,48.37
2018-12-11T08:45:01.329Z,46.90
2018-12-11T08:47:30.754Z,46.87
2018-12-11T08:50:00.176Z,46.00
2018-12-11T08:52:29.794Z,44.67
2018-12-11T08:54:59.216Z,45.03
2018-12-11T08:57:28.642Z,44.23
2018-12-11T08:59:58.028Z,43.20
2018-12-11T09:02:27.653Z,44.37
2018-12-11T09:04:59.215Z,42.03
2018-12-11T09:07:28.999Z,42.67
2018-12-11T09:09:58.460Z,41.20
2018-12-11T09:12:27.893Z,39.13
2018-12-11T09:14:57.385Z,40.67
2018-12-11T09:17:26.873Z,39.17
2018-12-11T09:19:56.286Z,39.63
2018-12-11T09:22:25.776Z,39.77
2018-12-11T09:24:55.212Z,39.13
2018-12-11T09:27:24.654Z,36.20
2018-12-11T09:29:54.109Z,38.07
2018-12-11T09:32:23.552Z,37.27
2018-12-11T09:34:52.952Z,37.90
2018-12-11T09:37:22.453Z,38.07
2018-12-11T09:39:51.920Z,35.53
2018-12-11T09:42:27.742Z,35.57
2018-12-11T09:44:52.790Z,34.80
2018-12-11T09:47:22.238Z,34.50
2018-12-11T09:49:51.699Z,33.53
2018-12-11T09:52:21.153Z,32.07
2018-12-11T09:54:50.576Z,34.37
2018-12-11T09:57:20.016Z,31.97
2018-12-11T09:59:49.443Z,30.20
2018-12-11T10:02:18.973Z,30.90
2018-12-11T10:04:48.397Z,30.80
2018-12-11T10:07:17.845Z,30.33
2018-12-11T10:09:47.288Z,30.43
2018-12-11T10:12:16.813Z,29.80
2018-12-11T10:14:46.372Z,28.00
2018-12-11T10:17:15.908Z,27.07
2018-12-11T10:19:45.342Z,27.33
2018-12-11T10:22:14.784Z,26.93
2018-12-11T10:24:44.268Z,28.13
2018-12-11T10:27:14.039Z,28.60
2018-12-11T10:29:43.552Z,32.13
2018-12-11T10:32:12.982Z,29.37
2018-12-11T10:34:43.719Z,30.13
2018-12-11T10:37:13.150Z,31.27
2018-12-11T10:39:42.673Z,30.90
2018-12-11T10:42:12.084Z,33.13
2018-12-11T10:44:42.368Z,34.17
2018-12-11T10:47:11.873Z,38.70
2018-12-11T10:49:41.312Z,33.80
2018-12-11T10:52:10.774Z,41.97
2018-12-11T10:54:40.208Z,35.20
2018-12-11T10:57:09.704Z,37.87
2018-12-11T10:59:39.149Z,38.77
2018-12-11T11:02:13.622Z,39.37
2018-12-11T11:04:43.106Z,43.33
2018-12-11T11:07:12.576Z,48.17
2018-12-11T11:09:42.077Z,51.80
2018-12-11T11:12:20.625Z,55.80
2018-12-11T11:14:50.675Z,56.13
2018-12-11T11:17:20.280Z,57.60
2018-12-11T11:19:49.846Z,61.77
2018-12-11T11:22:19.292Z,63.77
2018-12-11T11:24:48.774Z,66.83
2018-12-11T11:27:18.292Z,66.40
2018-12-11T11:29:47.714Z,69.90
2018-12-11T11:32:25.129Z,76.63
2018-12-11T11:35:00.689Z,74.30
2018-12-11T11:37:31.994Z,82.00
2018-12-11T11:42:43.020Z,82.33
2018-12-11T11:45:17.971Z,85.27
2018-12-11T11:47:50.701Z,84.53
2018-12-11T11:50:20.644Z,85.90
2018-12-11T11:52:50.468Z,79.00
2018-12-11T11:55:19.877Z,77.83
2018-12-11T11:57:49.312Z,74.90
2018-12-11T12:00:19.280Z,75.53
2018-12-11T12:02:49.896Z,70.00
2018-12-11T12:05:19.352Z,63.77
2018-12-11T12:07:49.065Z,56.17
2018-12-11T12:10:21.097Z,47.30
2018-12-11T12:12:50.644Z,41.80
2018-12-11T12:15:20.147Z,38.10
2018-12-11T12:17:50.611Z,33.40
2018-12-11T12:20:20.004Z,31.40
2018-12-11T12:22:49.476Z,31.17
2018-12-11T12:25:18.893Z,31.17
2018-12-11T12:27:48.377Z,32.47
2018-12-11T12:30:17.817Z,32.27
2018-12-11T12:32:47.238Z,37.27
2018-12-11T12:35:16.658Z,39.20
2018-12-11T12:37:46.128Z,43.70
2018-12-11T12:40:15.561Z,47.73
2018-12-11T12:42:45.017Z,48.50
2018-12-11T12:45:14.449Z,52.97
2018-12-11T12:47:44.996Z,49.20
2018-12-11T12:50:14.420Z,44.03
2018-12-11T12:52:43.837Z,42.73
2018-12-11T12:55:13.289Z,44.43
2018-12-11T12:57:42.745Z,42.57
2018-12-11T13:00:12.268Z,40.47
2018-12-11T13:02:42.192Z,36.87
2018-12-11T13:05:11.652Z,39.13
2018-12-11T13:07:41.072Z,38.27
2018-12-11T13:10:10.528Z,39.73
2018-12-11T13:12:40.296Z,46.00
2018-12-11T13:15:09.780Z,45.30
2018-12-11T13:17:39.280Z,52.97
2018-12-11T13:20:08.693Z,60.40
2018-12-11T13:22:38.092Z,76.17
2018-12-11T13:25:07.582Z,79.60
2018-12-11T13:27:37.021Z,72.23
2018-12-11T13:30:06.486Z,60.67
2018-12-11T13:32:35.920Z,60.10
2018-12-11T13:35:05.382Z,57.03
2018-12-11T13:37:34.794Z,56.37
2018-12-11T13:40:04.368Z,56.47
2018-12-11T13:42:33.960Z,54.77
2018-12-11T13:45:03.479Z,55.40
2018-12-11T13:47:34.043Z,56.97
2018-12-11T13:50:06.641Z,58.03
2018-12-11T13:52:36.076Z,59.60
2018-12-11T13:55:09.187Z,59.20
2018-12-11T13:57:38.916Z,56.57
2018-12-11T14:00:08.353Z,56.97
2018-12-11T14:02:37.980Z,55.90
2018-12-11T14:05:07.437Z,56.97
2018-12-11T14:07:36.917Z,51.83
2018-12-11T14:10:06.405Z,49.47
2018-12-11T14:12:35.928Z,51.27
2018-12-11T14:15:06.392Z,49.10
2018-12-11T14:17:35.824Z,49.60
2018-12-11T14:20:07.368Z,48.67
2018-12-11T14:22:38.808Z,49.10
2018-12-11T14:25:08.347Z,48.37
2018-12-11T14:27:37.755Z,48.00
2018-12-11T14:30:11.220Z,45.43
2018-12-11T14:32:40.623Z,43.93
2018-12-11T14:35:10.120Z,44.77
2018-12-11T14:37:39.617Z,30.77
2018-12-11T14:40:09.045Z,28.67
2018-12-11T14:42:38.563Z,32.73
2018-12-11T14:45:08.450Z,35.93
2018-12-11T14:47:39.140Z,40.77
2018-12-11T14:50:09.562Z,42.80
2018-12-11T14:52:39.137Z,39.90
2018-12-11T14:55:08.717Z,45.40
2018-12-11T14:57:38.768Z,48.37
2018-12-11T15:00:09.506Z,51.53
2018-12-11T15:02:39.757Z,55.03
2018-12-11T15:05:11.099Z,55.87
2018-12-11T15:07:40.619Z,53.97
2018-12-11T15:10:12.398Z,58.57
2018-12-11T15:12:41.872Z,54.60
2018-12-11T15:15:11.516Z,53.93
2018-12-11T15:17:40.960Z,55.87
2018-12-11T15:20:10.423Z,56.00
2018-12-11T15:22:39.911Z,56.40
2018-12-11T15:25:09.372Z,53.27
2018-12-11T15:27:39.433Z,56.50
2018-12-11T15:30:09.007Z,58.00
2018-12-11T15:32:38.437Z,58.67
2018-12-11T15:35:07.916Z,56.97
2018-12-11T15:37:37.336Z,49.73
2018-12-11T15:40:07.276Z,46.07
2018-12-11T15:42:37.745Z,42.73
2018-12-11T15:45:07.252Z,43.83
2018-12-11T15:47:36.671Z,40.93
2018-12-11T15:50:06.905Z,39.17
2018-12-11T15:52:36.324Z,36.10
2018-12-11T15:55:06.338Z,35.57
2018-12-11T15:57:36.801Z,31.00
2018-12-11T16:00:09.224Z,32.23
2018-12-11T16:02:38.689Z,30.73
2018-12-11T16:05:08.423Z,32.40
2018-12-11T16:07:37.943Z,31.90
2018-12-11T16:10:08.239Z,34.53
2018-12-11T16:12:37.648Z,35.63
2018-12-11T16:15:07.240Z,37.13
2018-12-11T16:17:36.657Z,37.87
2018-12-11T16:20:06.167Z,40.23
2018-12-11T16:22:35.590Z,38.13
2018-12-11T16:25:05.197Z,37.87
2018-12-11T16:27:35.013Z,36.17
2018-12-11T16:30:04.717Z,36.47
2018-12-11T16:32:34.157Z,35.97
2018-12-11T16:35:03.813Z,35.43
2018-12-11T16:37:33.508Z,34.67
2018-12-11T16:40:04.725Z,34.30
2018-12-11T16:42:34.658Z,34.03
2018-12-11T16:45:04.148Z,34.10
2018-12-11T16:47:34.561Z,32.80
2018-12-11T16:50:04.582Z,32.77
2018-12-11T16:52:34.950Z,33.10
2018-12-11T16:55:04.388Z,32.50
2018-12-11T16:57:34.846Z,31.93
2018-12-11T17:00:04.678Z,31.37
2018-12-11T17:02:35.327Z,31.63
2018-12-11T17:05:04.776Z,30.00
2018-12-11T17:07:34.229Z,30.13
2018-12-11T17:10:03.716Z,29.77
2018-12-11T17:12:33.350Z,29.37
2018-12-11T17:15:03.045Z,27.33
2018-12-11T17:17:32.807Z,29.27
2018-12-11T17:20:02.290Z,50.43
2018-12-11T17:22:32.871Z,44.77
2018-12-11T17:25:03.364Z,43.47
2018-12-11T17:27:32.784Z,42.40
2018-12-11T17:30:02.269Z,45.53
2018-12-11T17:32:31.755Z,48.33
2018-12-11T17:35:01.231Z,50.90
2018-12-11T17:37:30.725Z,48.90
2018-12-11T17:40:00.208Z,54.23
2018-12-11T17:42:29.749Z,56.33
2018-12-11T17:44:59.211Z,50.97
2018-12-11T17:47:28.636Z,52.73
2018-12-11T17:49:58.081Z,48.50
2018-12-11T17:52:27.523Z,48.00
2018-12-11T17:54:57.352Z,50.70
2018-12-11T17:57:26.789Z,48.30
2018-12-11T17:59:56.269Z,45.90
2018-12-11T18:02:30.793Z,47.17
2018-12-11T18:05:00.566Z,44.70
2018-12-11T18:07:30.034Z,45.57
2018-12-11T18:10:00.088Z,47.30
2018-12-11T18:12:29.648Z,41.73
2018-12-11T18:14:59.228Z,40.60
2018-12-11T18:17:28.742Z,40.53
2018-12-11T18:19:59.877Z,41.13
2018-12-11T18:22:29.921Z,39.60
2018-12-11T18:25:00.494Z,42.80
2018-12-11T18:27:31.320Z,41.50
2018-12-11T18:30:02.068Z,43.67
2018-12-11T18:32:32.019Z,46.10
2018-12-11T18:35:02.788Z,46.77
2018-12-11T18:37:32.561Z,49.17
2018-12-11T18:40:02.364Z,47.73
2018-12-11T18:42:33.037Z,49.57
2018-12-11T18:45:03.455Z,51.47
2018-12-11T18:47:34.482Z,62.97
2018-12-11T18:50:05.574Z,60.00
2018-12-11T18:52:35.145Z,58.97
2018-12-11T18:55:04.797Z,55.90
2018-12-11T18:57:34.747Z,62.93
2018-12-11T19:00:05.469Z,60.30
2018-12-11T19:02:36.249Z,63.93
2018-12-11T19:05:05.927Z,64.10
2018-12-11T19:07:35.403Z,64.37
2018-12-11T19:10:05.790Z,70.37
2018-12-11T19:12:35.828Z,73.73
2018-12-11T19:15:06.524Z,78.53
2018-12-11T19:17:36.753Z,79.50
2018-12-11T19:20:07.386Z,71.57
2018-12-11T19:22:37.665Z,75.73
2018-12-11T19:25:12.315Z,74.07
2018-12-11T19:27:41.832Z,76.47
2018-12-11T19:30:11.353Z,75.00
2018-12-11T19:32:43.117Z,76.37
2018-12-11T19:35:13.688Z,74.83
2018-12-11T19:37:45.321Z,74.63
2018-12-11T19:40:15.310Z,77.03
2018-12-11T19:42:46.226Z,75.47
2018-12-11T19:45:17.185Z,85.70
2018-12-11T19:47:47.285Z,88.23
2018-12-11T19:50:17.510Z,82.83
2018-12-11T19:52:48.296Z,84.37
2018-12-11T19:55:18.582Z,97.40
2018-12-11T19:57:48.225Z,79.35
2018-12-11T20:00:17.806Z,74.37
2018-12-11T20:02:47.466Z,77.97
2018-12-11T20:05:17.207Z,78.67
2018-12-11T20:07:47.875Z,82.10
2018-12-11T20:10:19.774Z,82.30
2018-12-11T20:12:49.406Z,80.70
2018-12-11T20:15:18.982Z,79.70
2018-12-11T20:17:49.466Z,83.83
2018-12-11T20:20:25.347Z,88.30
2018-12-11T20:22:55.041Z,89.07
2018-12-11T20:25:24.961Z,88.73
2018-12-11T20:27:54.816Z,89.30
2018-12-11T20:30:25.298Z,89.47
2018-12-11T20:32:54.972Z,90.97
2018-12-11T20:35:24.517Z,87.33
2018-12-11T20:37:54.176Z,86.93
2018-12-11T20:40:23.831Z,86.37
2018-12-11T20:42:53.368Z,84.60
2018-12-11T20:45:23.005Z,83.93
2018-12-11T20:47:52.988Z,90.87
2018-12-11T20:50:22.615Z,91.97
2018-12-11T20:52:53.318Z,90.73
2018-12-11T20:55:25.359Z,94.67
2018-12-11T20:57:55.431Z,95.67
2018-12-11T21:00:25.148Z,97.17
2018-12-11T21:02:56.225Z,88.27
2018-12-11T21:05:26.376Z,97.93
2018-12-11T21:07:56.272Z,99.50
2018-12-11T21:10:25.812Z,101.73
2018-12-11T21:12:55.429Z,93.67
2018-12-11T21:15:25.113Z,93.57
2018-12-11T21:18:08.649Z,92.00
2018-12-11T21:20:49.396Z,90.87
2018-12-11T21:23:23.446Z,92.73
2018-12-11T21:25:53.302Z,93.20
2018-12-11T21:28:22.920Z,90.80
2018-12-11T21:30:58.681Z,87.77
2018-12-11T21:33:30.011Z,89.83
2018-12-11T21:35:59.565Z,89.70
2018-12-11T21:38:29.069Z,89.07
2018-12-11T21:40:58.681Z,87.77
2018-12-11T21:43:28.810Z,87.77
2018-12-11T21:45:59.299Z,96.70
2018-12-11T21:48:37.511Z,103.43
2018-12-11T21:51:12.348Z,106.50
2018-12-11T21:53:47.474Z,101.17
2018-12-11T21:56:18.158Z,101.63
2018-12-11T21:58:47.781Z,103.73
2018-12-11T22:01:17.298Z,106.17
2018-12-11T22:03:52.106Z,102.00
2018-12-11T22:06:25.380Z,102.13
2018-12-11T22:08:55.002Z,100.00
2018-12-11T22:11:24.548Z,95.90
2018-12-11T22:13:59.638Z,95.90
2018-12-11T22:16:29.356Z,95.37
2018-12-11T22:18:58.800Z,94.57
2018-12-11T22:21:28.249Z,91.93
2018-12-11T22:23:57.731Z,89.50
2018-12-11T22:26:27.537Z,92.00
2018-12-11T22:28:56.964Z,100.53
2018-12-11T22:31:32.189Z,94.37
2018-12-11T22:34:05.623Z,88.73
2018-12-11T22:36:35.436Z,89.67
2018-12-11T22:39:07.359Z,89.77
2018-12-11T22:41:37.938Z,87.33
2018-12-11T22:44:16.941Z,90.13
2018-12-11T22:46:46.357Z,87.27
2018-12-11T22:49:15.756Z,88.90
2018-12-11T22:51:45.284Z,88.13
2018-12-11T22:54:15.030Z,88.20
2018-12-11T22:56:48.542Z,86.97
2018-12-11T22:59:20.637Z,89.50
2018-12-11T23:01:51.368Z,84.80
2018-12-11T23:04:21.842Z,87.37
2018-12-11T23:06:53.337Z,84.23
2018-12-11T23:09:24.080Z,85.53
2018-12-11T23:11:55.166Z,83.43
2018-12-11T23:14:26.570Z,84.57
2018-12-11T23:16:58.418Z,81.77
2018-12-11T23:19:28.937Z,84.87
2018-12-11T23:22:00.034Z,83.67
2018-12-11T23:24:36.796Z,82.57
2018-12-11T23:27:08.127Z,81.53
2018-12-11T23:29:37.811Z,81.33
2018-12-11T23:32:09.838Z,81.67
2018-12-11T23:34:39.445Z,80.30
2018-12-11T23:37:10.217Z,81.53
2018-12-11T23:39:39.845Z,80.23
2018-12-11T23:42:10.498Z,77.07
2018-12-11T23:44:40.089Z,77.97
2018-12-11T23:47:10.666Z,77.37
2018-12-11T23:49:40.987Z,76.70
2018-12-11T23:52:11.007Z,73.57
2018-12-11T23:54:41.683Z,73.90
2018-12-11T23:57:11.485Z,73.50
2018-12-11T23:59:41.057Z,71.57
